sensor_id;sensor_type;location;lat;lon;timestamp;P1;durP1;ratioP1;P2;durP2;ratioP2
13439;SDS011;6792;57.698;11.946;2023-12-14T00:06:15;0.80;;;0.80;;
13439;SDS011;6792;57.698;11.946;2023-12-14T00:12:11;5.60;;;1.30;;
13439;SDS011;6792;57.698;11.946;2023-12-14T00:14:44;2.20;;;1.10;;
13439;SDS011;6792;57.698;11.946;2023-12-14T00:17:32;2.27;;;1.10;;
13439;SDS011;6792;57.698;11.946;2023-12-14T00:20:03;1.37;;;1.23;;
13439;SDS011;6792;57.698;11.946;2023-12-14T00:26:03;1.10;;;1.00;;
13439;SDS011;6792;57.698;11.946;2023-12-14T00:28:41;1.10;;;1.00;;
13439;SDS011;6792;57.698;11.946;2023-12-14T00:31:22;1.73;;;1.03;;
13439;SDS011;6792;57.698;11.946;2023-12-14T00:33:52;1.43;;;1.30;;
13439;SDS011;6792;57.698;11.946;2023-12-14T00:36:22;1.43;;;1.07;;
13439;SDS011;6792;57.698;11.946;2023-12-14T00:39:03;1.30;;;1.20;;
13439;SDS011;6792;57.698;11.946;2023-12-14T00:41:35;1.20;;;1.10;;
13439;SDS011;6792;57.698;11.946;2023-12-14T00:44:17;1.13;;;1.03;;
13439;SDS011;6792;57.698;11.946;2023-12-14T00:46:54;1.43;;;1.23;;
13439;SDS011;6792;57.698;11.946;2023-12-14T00:49:44;1.40;;;1.30;;
13439;SDS011;6792;57.698;11.946;2023-12-14T00:52:59;1.37;;;0.93;;
13439;SDS011;6792;57.698;11.946;2023-12-14T00:55:53;1.33;;;1.00;;
13439;SDS011;6792;57.698;11.946;2023-12-14T00:58:27;1.77;;;0.97;;
13439;SDS011;6792;57.698;11.946;2023-12-14T01:00:57;1.30;;;0.90;;
13439;SDS011;6792;57.698;11.946;2023-12-14T01:06:43;1.23;;;1.13;;
13439;SDS011;6792;57.698;11.946;2023-12-14T01:09:20;1.50;;;1.10;;
13439;SDS011;6792;57.698;11.946;2023-12-14T01:12:17;1.17;;;1.07;;
13439;SDS011;6792;57.698;11.946;2023-12-14T01:15:07;2.40;;;1.10;;
13439;SDS011;6792;57.698;11.946;2023-12-14T01:24:06;1.10;;;1.00;;
13439;SDS011;6792;57.698;11.946;2023-12-14T01:27:01;1.03;;;0.93;;
13439;SDS011;6792;57.698;11.946;2023-12-14T01:29:42;1.20;;;1.10;;
13439;SDS011;6792;57.698;11.946;2023-12-14T01:42:19;1.33;;;1.13;;
13439;SDS011;6792;57.698;11.946;2023-12-14T01:57:21;1.10;;;0.90;;
13439;SDS011;6792;57.698;11.946;2023-12-14T02:10:16;1.13;;;0.80;;
13439;SDS011;6792;57.698;11.946;2023-12-14T02:18:17;0.97;;;0.90;;
13439;SDS011;6792;57.698;11.946;2023-12-14T02:27:18;1.20;;;1.10;;
13439;SDS011;6792;57.698;11.946;2023-12-14T02:33:27;1.30;;;1.13;;
13439;SDS011;6792;57.698;11.946;2023-12-14T02:39:26;1.33;;;0.97;;
13439;SDS011;6792;57.698;11.946;2023-12-14T02:48:22;1.20;;;1.10;;
13439;SDS011;6792;57.698;11.946;2023-12-14T02:50:58;1.10;;;0.80;;
13439;SDS011;6792;57.698;11.946;2023-12-14T02:54:35;1.40;;;1.17;;
13439;SDS011;6792;57.698;11.946;2023-12-14T03:01:07;1.10;;;1.00;;
13439;SDS011;6792;57.698;11.946;2023-12-14T03:04:16;1.03;;;0.93;;
13439;SDS011;6792;57.698;11.946;2023-12-14T03:06:50;0.87;;;0.80;;
13439;SDS011;6792;57.698;11.946;2023-12-14T03:09:29;1.40;;;1.10;;
13439;SDS011;6792;57.698;11.946;2023-12-14T03:12:07;4.10;;;1.07;;
13439;SDS011;6792;57.698;11.946;2023-12-14T03:14:42;1.27;;;0.80;;
13439;SDS011;6792;57.698;11.946;2023-12-14T03:17:47;1.23;;;1.13;;
13439;SDS011;6792;57.698;11.946;2023-12-14T03:20:27;1.13;;;1.00;;
13439;SDS011;6792;57.698;11.946;2023-12-14T03:22:59;0.90;;;0.90;;
13439;SDS011;6792;57.698;11.946;2023-12-14T03:25:33;1.27;;;0.93;;
13439;SDS011;6792;57.698;11.946;2023-12-14T03:28:07;1.17;;;1.07;;
13439;SDS011;6792;57.698;11.946;2023-12-14T03:30:45;1.17;;;0.90;;
13439;SDS011;6792;57.698;11.946;2023-12-14T03:34:04;1.10;;;1.00;;
13439;SDS011;6792;57.698;11.946;2023-12-14T03:40:56;0.67;;;0.67;;
13439;SDS011;6792;57.698;11.946;2023-12-14T03:43:57;1.30;;;0.90;;
13439;SDS011;6792;57.698;11.946;2023-12-14T03:47:11;1.73;;;0.90;;
13439;SDS011;6792;57.698;11.946;2023-12-14T03:53:39;0.80;;;0.80;;
13439;SDS011;6792;57.698;11.946;2023-12-14T03:56:13;2.30;;;1.00;;
13439;SDS011;6792;57.698;11.946;2023-12-14T04:08:53;1.70;;;1.07;;
13439;SDS011;6792;57.698;11.946;2023-12-14T04:21:42;1.37;;;0.90;;
13439;SDS011;6792;57.698;11.946;2023-12-14T04:24:28;1.93;;;1.27;;
13439;SDS011;6792;57.698;11.946;2023-12-14T04:27:15;1.30;;;0.80;;
13439;SDS011;6792;57.698;11.946;2023-12-14T04:30:36;1.03;;;0.80;;
13439;SDS011;6792;57.698;11.946;2023-12-14T04:40:00;2.80;;;1.30;;
13439;SDS011;6792;57.698;11.946;2023-12-14T04:42:36;1.20;;;1.10;;
13439;SDS011;6792;57.698;11.946;2023-12-14T04:45:06;1.20;;;1.10;;
13439;SDS011;6792;57.698;11.946;2023-12-14T04:51:38;1.40;;;1.13;;
13439;SDS011;6792;57.698;11.946;2023-12-14T04:54:22;1.23;;;1.17;;
13439;SDS011;6792;57.698;11.946;2023-12-14T04:56:59;1.37;;;1.23;;
13439;SDS011;6792;57.698;11.946;2023-12-14T04:59:29;1.33;;;1.17;;
13439;SDS011;6792;57.698;11.946;2023-12-14T05:15:06;3.57;;;1.17;;
13439;SDS011;6792;57.698;11.946;2023-12-14T05:17:45;2.60;;;1.30;;
13439;SDS011;6792;57.698;11.946;2023-12-14T05:20:25;2.20;;;1.43;;
13439;SDS011;6792;57.698;11.946;2023-12-14T05:26:57;2.57;;;1.23;;
13439;SDS011;6792;57.698;11.946;2023-12-14T05:29:33;2.20;;;1.40;;
13439;SDS011;6792;57.698;11.946;2023-12-14T05:32:22;2.93;;;1.07;;
13439;SDS011;6792;57.698;11.946;2023-12-14T05:35:13;1.30;;;1.20;;
13439;SDS011;6792;57.698;11.946;2023-12-14T05:57:30;1.23;;;1.13;;
13439;SDS011;6792;57.698;11.946;2023-12-14T06:04:23;1.60;;;1.33;;
13439;SDS011;6792;57.698;11.946;2023-12-14T06:07:06;2.63;;;1.53;;
13439;SDS011;6792;57.698;11.946;2023-12-14T06:23:15;3.20;;;1.70;;
13439;SDS011;6792;57.698;11.946;2023-12-14T06:28:36;5.53;;;1.60;;
13439;SDS011;6792;57.698;11.946;2023-12-14T06:43:56;6.13;;;1.90;;
13439;SDS011;6792;57.698;11.946;2023-12-14T06:46:48;6.00;;;1.83;;
13439;SDS011;6792;57.698;11.946;2023-12-14T06:49:27;2.97;;;1.60;;
13439;SDS011;6792;57.698;11.946;2023-12-14T06:52:39;4.60;;;1.77;;
13439;SDS011;6792;57.698;11.946;2023-12-14T06:58:44;2.97;;;1.60;;
13439;SDS011;6792;57.698;11.946;2023-12-14T07:01:23;1.53;;;1.43;;
13439;SDS011;6792;57.698;11.946;2023-12-14T07:09:54;19.07;;;2.27;;
13439;SDS011;6792;57.698;11.946;2023-12-14T07:12:38;6.00;;;2.00;;
13439;SDS011;6792;57.698;11.946;2023-12-14T07:15:36;6.23;;;1.90;;
13439;SDS011;6792;57.698;11.946;2023-12-14T07:18:08;6.13;;;1.80;;
13439;SDS011;6792;57.698;11.946;2023-12-14T07:21:15;2.10;;;1.60;;
13439;SDS011;6792;57.698;11.946;2023-12-14T07:23:54;21.50;;;3.17;;
13439;SDS011;6792;57.698;11.946;2023-12-14T07:26:43;4.43;;;1.70;;
13439;SDS011;6792;57.698;11.946;2023-12-14T07:29:14;2.03;;;1.57;;
13439;SDS011;6792;57.698;11.946;2023-12-14T07:34:36;9.13;;;1.97;;
13439;SDS011;6792;57.698;11.946;2023-12-14T07:40:24;12.47;;;2.27;;
13439;SDS011;6792;57.698;11.946;2023-12-14T07:47:03;3.23;;;1.60;;
13439;SDS011;6792;57.698;11.946;2023-12-14T07:50:12;2.73;;;1.87;;
13439;SDS011;6792;57.698;11.946;2023-12-14T07:53:09;2.70;;;1.30;;
13439;SDS011;6792;57.698;11.946;2023-12-14T08:02:35;4.97;;;2.27;;
13439;SDS011;6792;57.698;11.946;2023-12-14T08:05:09;5.70;;;3.00;;
13439;SDS011;6792;57.698;11.946;2023-12-14T08:07:43;5.53;;;2.10;;
13439;SDS011;6792;57.698;11.946;2023-12-14T08:10:14;2.23;;;2.03;;
13439;SDS011;6792;57.698;11.946;2023-12-14T08:12:47;13.07;;;2.67;;
13439;SDS011;6792;57.698;11.946;2023-12-14T08:18:41;14.53;;;2.33;;
13439;SDS011;6792;57.698;11.946;2023-12-14T08:28:34;8.43;;;2.10;;
13439;SDS011;6792;57.698;11.946;2023-12-14T08:31:21;3.63;;;1.77;;
13439;SDS011;6792;57.698;11.946;2023-12-14T08:34:22;1.63;;;1.53;;
13439;SDS011;6792;57.698;11.946;2023-12-14T08:40:06;2.40;;;1.80;;
13439;SDS011;6792;57.698;11.946;2023-12-14T08:42:50;3.50;;;2.00;;
13439;SDS011;6792;57.698;11.946;2023-12-14T08:49:16;2.83;;;2.10;;
13439;SDS011;6792;57.698;11.946;2023-12-14T08:52:12;3.07;;;1.97;;
13439;SDS011;6792;57.698;11.946;2023-12-14T08:55:05;1.87;;;1.67;;
13439;SDS011;6792;57.698;11.946;2023-12-14T08:57:50;1.70;;;1.50;;
13439;SDS011;6792;57.698;11.946;2023-12-14T09:00:23;3.97;;;1.90;;
13439;SDS011;6792;57.698;11.946;2023-12-14T09:03:02;5.97;;;2.20;;
13439;SDS011;6792;57.698;11.946;2023-12-14T09:05:44;2.70;;;1.67;;
13439;SDS011;6792;57.698;11.946;2023-12-14T09:08:25;2.07;;;1.87;;
13439;SDS011;6792;57.698;11.946;2023-12-14T09:11:14;8.40;;;2.00;;
13439;SDS011;6792;57.698;11.946;2023-12-14T09:13:47;4.90;;;2.27;;
13439;SDS011;6792;57.698;11.946;2023-12-14T09:16:18;2.07;;;1.80;;
13439;SDS011;6792;57.698;11.946;2023-12-14T09:18:54;9.33;;;2.53;;
13439;SDS011;6792;57.698;11.946;2023-12-14T09:21:24;7.80;;;1.97;;
13439;SDS011;6792;57.698;11.946;2023-12-14T09:23:53;4.63;;;1.83;;
13439;SDS011;6792;57.698;11.946;2023-12-14T09:26:26;5.60;;;2.00;;
13439;SDS011;6792;57.698;11.946;2023-12-14T09:28:56;3.67;;;2.37;;
13439;SDS011;6792;57.698;11.946;2023-12-14T09:31:26;4.90;;;1.73;;
13439;SDS011;6792;57.698;11.946;2023-12-14T09:33:59;11.30;;;2.13;;
13439;SDS011;6792;57.698;11.946;2023-12-14T09:36:29;2.80;;;1.77;;
13439;SDS011;6792;57.698;11.946;2023-12-14T09:38:59;9.50;;;2.50;;
13439;SDS011;6792;57.698;11.946;2023-12-14T09:41:31;3.53;;;1.70;;
13439;SDS011;6792;57.698;11.946;2023-12-14T09:44:01;6.00;;;2.10;;
13439;SDS011;6792;57.698;11.946;2023-12-14T09:46:34;12.00;;;2.10;;
13439;SDS011;6792;57.698;11.946;2023-12-14T09:49:07;5.70;;;1.87;;
13439;SDS011;6792;57.698;11.946;2023-12-14T09:51:39;2.60;;;1.90;;
13439;SDS011;6792;57.698;11.946;2023-12-14T09:54:08;5.47;;;1.80;;
13439;SDS011;6792;57.698;11.946;2023-12-14T09:56:49;2.33;;;1.77;;
13439;SDS011;6792;57.698;11.946;2023-12-14T09:59:28;2.53;;;1.97;;
13439;SDS011;6792;57.698;11.946;2023-12-14T10:02:09;2.37;;;1.77;;
13439;SDS011;6792;57.698;11.946;2023-12-14T10:04:43;4.13;;;2.10;;
13439;SDS011;6792;57.698;11.946;2023-12-14T10:07:13;2.27;;;1.70;;
13439;SDS011;6792;57.698;11.946;2023-12-14T10:09:43;2.73;;;1.87;;
13439;SDS011;6792;57.698;11.946;2023-12-14T10:12:20;7.90;;;1.93;;
13439;SDS011;6792;57.698;11.946;2023-12-14T10:15:00;7.77;;;1.97;;
13439;SDS011;6792;57.698;11.946;2023-12-14T10:17:32;5.67;;;1.90;;
13439;SDS011;6792;57.698;11.946;2023-12-14T10:20:12;4.77;;;1.57;;
13439;SDS011;6792;57.698;11.946;2023-12-14T10:22:50;15.50;;;2.40;;
13439;SDS011;6792;57.698;11.946;2023-12-14T10:25:22;4.00;;;1.50;;
13439;SDS011;6792;57.698;11.946;2023-12-14T10:27:52;3.87;;;1.80;;
13439;SDS011;6792;57.698;11.946;2023-12-14T10:30:22;2.10;;;1.73;;
13439;SDS011;6792;57.698;11.946;2023-12-14T10:32:51;2.33;;;1.70;;
13439;SDS011;6792;57.698;11.946;2023-12-14T10:35:21;1.93;;;1.60;;
13439;SDS011;6792;57.698;11.946;2023-12-14T10:37:52;1.73;;;1.43;;
13439;SDS011;6792;57.698;11.946;2023-12-14T10:40:23;2.63;;;2.27;;
13439;SDS011;6792;57.698;11.946;2023-12-14T10:42:54;7.17;;;1.73;;
13439;SDS011;6792;57.698;11.946;2023-12-14T10:45:29;5.60;;;1.80;;
13439;SDS011;6792;57.698;11.946;2023-12-14T10:48:13;11.40;;;2.30;;
13439;SDS011;6792;57.698;11.946;2023-12-14T10:50:46;5.63;;;1.80;;
13439;SDS011;6792;57.698;11.946;2023-12-14T10:53:24;5.13;;;1.90;;
13439;SDS011;6792;57.698;11.946;2023-12-14T10:55:54;9.47;;;2.43;;
13439;SDS011;6792;57.698;11.946;2023-12-14T10:58:27;4.00;;;1.80;;
13439;SDS011;6792;57.698;11.946;2023-12-14T11:01:00;2.80;;;1.60;;
13439;SDS011;6792;57.698;11.946;2023-12-14T11:03:34;7.97;;;1.97;;
13439;SDS011;6792;57.698;11.946;2023-12-14T11:06:16;5.23;;;1.83;;
13439;SDS011;6792;57.698;11.946;2023-12-14T11:08:53;3.60;;;2.00;;
13439;SDS011;6792;57.698;11.946;2023-12-14T11:11:29;10.80;;;2.37;;
13439;SDS011;6792;57.698;11.946;2023-12-14T11:14:11;5.33;;;2.17;;
13439;SDS011;6792;57.698;11.946;2023-12-14T11:16:54;2.33;;;1.97;;
13439;SDS011;6792;57.698;11.946;2023-12-14T11:19:30;1.50;;;1.40;;
13439;SDS011;6792;57.698;11.946;2023-12-14T11:22:10;4.53;;;1.60;;
13439;SDS011;6792;57.698;11.946;2023-12-14T11:24:59;7.23;;;1.80;;
13439;SDS011;6792;57.698;11.946;2023-12-14T11:30:22;1.60;;;1.50;;
13439;SDS011;6792;57.698;11.946;2023-12-14T11:32:53;2.70;;;1.87;;
13439;SDS011;6792;57.698;11.946;2023-12-14T11:35:51;1.87;;;1.40;;
13439;SDS011;6792;57.698;11.946;2023-12-14T11:41:28;5.07;;;2.00;;
13439;SDS011;6792;57.698;11.946;2023-12-14T11:44:02;4.87;;;1.80;;
13439;SDS011;6792;57.698;11.946;2023-12-14T11:46:33;1.83;;;1.67;;
13439;SDS011;6792;57.698;11.946;2023-12-14T11:49:03;1.83;;;1.67;;
13439;SDS011;6792;57.698;11.946;2023-12-14T11:51:36;3.23;;;1.70;;
13439;SDS011;6792;57.698;11.946;2023-12-14T11:57:01;5.10;;;1.60;;
13439;SDS011;6792;57.698;11.946;2023-12-14T11:59:46;6.57;;;1.70;;
13439;SDS011;6792;57.698;11.946;2023-12-14T12:02:26;2.37;;;1.60;;
13439;SDS011;6792;57.698;11.946;2023-12-14T12:04:58;2.23;;;1.70;;
13439;SDS011;6792;57.698;11.946;2023-12-14T12:07:29;4.40;;;1.90;;
13439;SDS011;6792;57.698;11.946;2023-12-14T12:09:59;1.63;;;1.53;;
13439;SDS011;6792;57.698;11.946;2023-12-14T12:12:48;2.83;;;1.53;;
13439;SDS011;6792;57.698;11.946;2023-12-14T12:15:27;1.70;;;1.30;;
13439;SDS011;6792;57.698;11.946;2023-12-14T12:17:58;15.83;;;1.87;;
13439;SDS011;6792;57.698;11.946;2023-12-14T12:20:28;1.57;;;1.27;;
13439;SDS011;6792;57.698;11.946;2023-12-14T12:23:01;1.83;;;1.50;;
13439;SDS011;6792;57.698;11.946;2023-12-14T12:25:32;4.87;;;1.90;;
13439;SDS011;6792;57.698;11.946;2023-12-14T12:28:02;5.47;;;1.63;;
13439;SDS011;6792;57.698;11.946;2023-12-14T12:30:41;4.17;;;1.80;;
13439;SDS011;6792;57.698;11.946;2023-12-14T12:36:21;5.30;;;2.30;;
13439;SDS011;6792;57.698;11.946;2023-12-14T12:39:09;3.87;;;2.40;;
13439;SDS011;6792;57.698;11.946;2023-12-14T12:44:13;3.30;;;2.20;;
13439;SDS011;6792;57.698;11.946;2023-12-14T12:46:44;4.57;;;1.77;;
13439;SDS011;6792;57.698;11.946;2023-12-14T13:02:20;2.57;;;1.57;;
13439;SDS011;6792;57.698;11.946;2023-12-14T13:05:07;2.93;;;1.80;;
13439;SDS011;6792;57.698;11.946;2023-12-14T13:07:43;4.37;;;1.77;;
13439;SDS011;6792;57.698;11.946;2023-12-14T13:40:15;2.07;;;1.60;;
13439;SDS011;6792;57.698;11.946;2023-12-14T13:46:38;3.70;;;1.33;;
13439;SDS011;6792;57.698;11.946;2023-12-14T13:49:09;3.70;;;1.73;;
13439;SDS011;6792;57.698;11.946;2023-12-14T13:51:40;3.70;;;1.50;;
13439;SDS011;6792;57.698;11.946;2023-12-14T13:54:14;4.57;;;1.60;;
13439;SDS011;6792;57.698;11.946;2023-12-14T13:56:44;2.80;;;1.63;;
13439;SDS011;6792;57.698;11.946;2023-12-14T13:59:14;6.97;;;2.00;;
13439;SDS011;6792;57.698;11.946;2023-12-14T14:01:48;2.23;;;1.43;;
13439;SDS011;6792;57.698;11.946;2023-12-14T14:04:18;2.83;;;1.90;;
13439;SDS011;6792;57.698;11.946;2023-12-14T14:06:48;3.13;;;1.73;;
13439;SDS011;6792;57.698;11.946;2023-12-14T14:09:17;4.50;;;1.80;;
13439;SDS011;6792;57.698;11.946;2023-12-14T14:11:47;8.43;;;1.67;;
13439;SDS011;6792;57.698;11.946;2023-12-14T14:14:17;2.67;;;1.50;;
13439;SDS011;6792;57.698;11.946;2023-12-14T14:16:48;4.30;;;1.63;;
13439;SDS011;6792;57.698;11.946;2023-12-14T14:19:18;4.00;;;1.90;;
13439;SDS011;6792;57.698;11.946;2023-12-14T14:21:47;4.23;;;1.57;;
13439;SDS011;6792;57.698;11.946;2023-12-14T14:24:17;9.87;;;1.87;;
13439;SDS011;6792;57.698;11.946;2023-12-14T14:26:47;4.87;;;1.70;;
13439;SDS011;6792;57.698;11.946;2023-12-14T14:29:16;4.00;;;1.57;;
13439;SDS011;6792;57.698;11.946;2023-12-14T14:31:46;4.33;;;1.57;;
13439;SDS011;6792;57.698;11.946;2023-12-14T14:34:15;1.83;;;1.50;;
13439;SDS011;6792;57.698;11.946;2023-12-14T14:36:44;4.17;;;1.67;;
13439;SDS011;6792;57.698;11.946;2023-12-14T14:39:14;4.00;;;1.93;;
13439;SDS011;6792;57.698;11.946;2023-12-14T14:41:45;2.17;;;1.77;;
13439;SDS011;6792;57.698;11.946;2023-12-14T14:44:54;2.07;;;1.47;;
13439;SDS011;6792;57.698;11.946;2023-12-14T14:47:30;2.50;;;1.67;;
13439;SDS011;6792;57.698;11.946;2023-12-14T14:49:59;3.93;;;1.63;;
13439;SDS011;6792;57.698;11.946;2023-12-14T14:52:30;4.97;;;1.90;;
13439;SDS011;6792;57.698;11.946;2023-12-14T14:55:01;6.13;;;2.00;;
13439;SDS011;6792;57.698;11.946;2023-12-14T14:57:31;12.33;;;1.90;;
13439;SDS011;6792;57.698;11.946;2023-12-14T15:00:00;7.00;;;1.90;;
13439;SDS011;6792;57.698;11.946;2023-12-14T15:02:30;5.17;;;1.70;;
13439;SDS011;6792;57.698;11.946;2023-12-14T15:05:00;1.87;;;1.60;;
13439;SDS011;6792;57.698;11.946;2023-12-14T15:07:29;5.00;;;2.23;;
13439;SDS011;6792;57.698;11.946;2023-12-14T15:09:59;8.07;;;2.30;;
13439;SDS011;6792;57.698;11.946;2023-12-14T15:12:30;5.40;;;1.87;;
13439;SDS011;6792;57.698;11.946;2023-12-14T15:14:59;11.50;;;2.10;;
13439;SDS011;6792;57.698;11.946;2023-12-14T15:17:34;3.80;;;1.90;;
13439;SDS011;6792;57.698;11.946;2023-12-14T15:20:04;14.37;;;2.77;;
13439;SDS011;6792;57.698;11.946;2023-12-14T15:22:35;3.00;;;1.97;;
13439;SDS011;6792;57.698;11.946;2023-12-14T15:25:05;4.53;;;1.63;;
13439;SDS011;6792;57.698;11.946;2023-12-14T15:30:41;6.43;;;2.00;;
13439;SDS011;6792;57.698;11.946;2023-12-14T15:33:11;4.60;;;1.60;;
13439;SDS011;6792;57.698;11.946;2023-12-14T15:35:41;4.43;;;1.73;;
13439;SDS011;6792;57.698;11.946;2023-12-14T15:40:55;5.00;;;2.27;;
13439;SDS011;6792;57.698;11.946;2023-12-14T15:43:30;6.13;;;1.73;;
13439;SDS011;6792;57.698;11.946;2023-12-14T15:46:03;8.07;;;1.67;;
13439;SDS011;6792;57.698;11.946;2023-12-14T15:48:42;4.27;;;1.70;;
13439;SDS011;6792;57.698;11.946;2023-12-14T15:51:13;3.17;;;2.00;;
13439;SDS011;6792;57.698;11.946;2023-12-14T15:53:45;2.03;;;1.63;;
13439;SDS011;6792;57.698;11.946;2023-12-14T15:56:17;5.03;;;2.00;;
13439;SDS011;6792;57.698;11.946;2023-12-14T15:58:49;4.00;;;2.20;;
13439;SDS011;6792;57.698;11.946;2023-12-14T16:01:18;2.30;;;1.73;;
13439;SDS011;6792;57.698;11.946;2023-12-14T16:03:48;3.50;;;1.80;;
13439;SDS011;6792;57.698;11.946;2023-12-14T16:06:22;4.57;;;2.10;;
13439;SDS011;6792;57.698;11.946;2023-12-14T16:08:52;2.43;;;1.73;;
13439;SDS011;6792;57.698;11.946;2023-12-14T16:11:24;3.53;;;1.70;;
13439;SDS011;6792;57.698;11.946;2023-12-14T16:13:57;7.93;;;2.00;;
13439;SDS011;6792;57.698;11.946;2023-12-14T16:16:26;4.10;;;1.70;;
13439;SDS011;6792;57.698;11.946;2023-12-14T16:18:56;2.70;;;1.77;;
13439;SDS011;6792;57.698;11.946;2023-12-14T16:21:27;2.10;;;1.90;;
13439;SDS011;6792;57.698;11.946;2023-12-14T16:23:58;3.60;;;2.00;;
13439;SDS011;6792;57.698;11.946;2023-12-14T16:26:28;1.90;;;1.67;;
13439;SDS011;6792;57.698;11.946;2023-12-14T16:28:57;2.83;;;1.80;;
13439;SDS011;6792;57.698;11.946;2023-12-14T16:31:26;4.43;;;1.90;;
13439;SDS011;6792;57.698;11.946;2023-12-14T16:33:56;2.57;;;1.60;;
13439;SDS011;6792;57.698;11.946;2023-12-14T16:36:25;5.50;;;2.00;;
13439;SDS011;6792;57.698;11.946;2023-12-14T16:38:55;2.17;;;1.83;;
13439;SDS011;6792;57.698;11.946;2023-12-14T16:41:25;2.07;;;1.87;;
13439;SDS011;6792;57.698;11.946;2023-12-14T16:44:06;6.60;;;2.07;;
13439;SDS011;6792;57.698;11.946;2023-12-14T16:46:36;3.37;;;2.50;;
13439;SDS011;6792;57.698;11.946;2023-12-14T16:49:05;2.17;;;1.77;;
13439;SDS011;6792;57.698;11.946;2023-12-14T16:51:34;2.40;;;2.00;;
13439;SDS011;6792;57.698;11.946;2023-12-14T16:54:03;4.13;;;2.00;;
13439;SDS011;6792;57.698;11.946;2023-12-14T16:56:32;3.00;;;2.20;;
13439;SDS011;6792;57.698;11.946;2023-12-14T16:59:01;4.07;;;2.00;;
13439;SDS011;6792;57.698;11.946;2023-12-14T17:01:31;2.27;;;2.00;;
13439;SDS011;6792;57.698;11.946;2023-12-14T17:04:03;2.63;;;1.87;;
13439;SDS011;6792;57.698;11.946;2023-12-14T17:06:33;5.57;;;1.87;;
13439;SDS011;6792;57.698;11.946;2023-12-14T17:09:02;2.57;;;1.67;;
13439;SDS011;6792;57.698;11.946;2023-12-14T17:14:28;3.33;;;1.90;;
13439;SDS011;6792;57.698;11.946;2023-12-14T17:17:03;5.57;;;2.33;;
13439;SDS011;6792;57.698;11.946;2023-12-14T17:19:35;4.13;;;2.23;;
13439;SDS011;6792;57.698;11.946;2023-12-14T17:22:10;2.17;;;1.93;;
13439;SDS011;6792;57.698;11.946;2023-12-14T17:24:42;5.33;;;2.00;;
13439;SDS011;6792;57.698;11.946;2023-12-14T17:27:12;3.30;;;2.20;;
13439;SDS011;6792;57.698;11.946;2023-12-14T17:29:45;2.70;;;2.03;;
13439;SDS011;6792;57.698;11.946;2023-12-14T17:32:18;4.33;;;2.47;;
13439;SDS011;6792;57.698;11.946;2023-12-14T17:34:47;5.00;;;2.17;;
13439;SDS011;6792;57.698;11.946;2023-12-14T17:37:17;2.53;;;2.00;;
13439;SDS011;6792;57.698;11.946;2023-12-14T17:39:47;3.90;;;1.80;;
13439;SDS011;6792;57.698;11.946;2023-12-14T17:42:16;5.47;;;1.87;;
13439;SDS011;6792;57.698;11.946;2023-12-14T17:47:40;4.73;;;2.03;;
13439;SDS011;6792;57.698;11.946;2023-12-14T17:50:10;5.80;;;2.00;;
13439;SDS011;6792;57.698;11.946;2023-12-14T17:52:45;3.73;;;2.63;;
13439;SDS011;6792;57.698;11.946;2023-12-14T17:55:18;5.60;;;2.63;;
13439;SDS011;6792;57.698;11.946;2023-12-14T17:58:08;7.03;;;2.60;;
13439;SDS011;6792;57.698;11.946;2023-12-14T18:00:59;7.00;;;2.50;;
13439;SDS011;6792;57.698;11.946;2023-12-14T18:03:34;6.50;;;3.27;;
13439;SDS011;6792;57.698;11.946;2023-12-14T18:06:31;3.93;;;2.40;;
13439;SDS011;6792;57.698;11.946;2023-12-14T18:09:03;2.87;;;2.20;;
13439;SDS011;6792;57.698;11.946;2023-12-14T18:11:38;4.60;;;2.00;;
13439;SDS011;6792;57.698;11.946;2023-12-14T18:14:08;2.90;;;2.00;;
13439;SDS011;6792;57.698;11.946;2023-12-14T18:16:54;2.53;;;2.13;;
13439;SDS011;6792;57.698;11.946;2023-12-14T18:19:25;4.07;;;1.93;;
13439;SDS011;6792;57.698;11.946;2023-12-14T18:21:57;3.53;;;2.03;;
13439;SDS011;6792;57.698;11.946;2023-12-14T18:27:19;3.00;;;2.57;;
13439;SDS011;6792;57.698;11.946;2023-12-14T18:30:02;3.03;;;2.00;;
13439;SDS011;6792;57.698;11.946;2023-12-14T18:32:39;2.53;;;2.20;;
13439;SDS011;6792;57.698;11.946;2023-12-14T18:35:09;2.37;;;1.90;;
13439;SDS011;6792;57.698;11.946;2023-12-14T18:37:39;2.33;;;2.00;;
13439;SDS011;6792;57.698;11.946;2023-12-14T18:40:10;2.30;;;2.10;;
13439;SDS011;6792;57.698;11.946;2023-12-14T18:42:46;3.97;;;2.10;;
13439;SDS011;6792;57.698;11.946;2023-12-14T18:45:23;2.17;;;2.00;;
13439;SDS011;6792;57.698;11.946;2023-12-14T18:47:53;5.50;;;2.83;;
13439;SDS011;6792;57.698;11.946;2023-12-14T18:50:35;5.90;;;2.47;;
13439;SDS011;6792;57.698;11.946;2023-12-14T18:53:05;6.67;;;2.93;;
13439;SDS011;6792;57.698;11.946;2023-12-14T18:55:37;8.30;;;3.10;;
13439;SDS011;6792;57.698;11.946;2023-12-14T18:58:07;5.80;;;3.10;;
13439;SDS011;6792;57.698;11.946;2023-12-14T19:00:37;3.10;;;2.33;;
13439;SDS011;6792;57.698;11.946;2023-12-14T19:03:10;5.77;;;2.60;;
13439;SDS011;6792;57.698;11.946;2023-12-14T19:05:42;3.37;;;2.90;;
13439;SDS011;6792;57.698;11.946;2023-12-14T19:08:14;4.70;;;2.60;;
13439;SDS011;6792;57.698;11.946;2023-12-14T19:10:44;4.97;;;2.50;;
13439;SDS011;6792;57.698;11.946;2023-12-14T19:13:14;3.60;;;2.37;;
13439;SDS011;6792;57.698;11.946;2023-12-14T19:15:44;5.47;;;2.53;;
13439;SDS011;6792;57.698;11.946;2023-12-14T19:18:27;3.63;;;2.50;;
13439;SDS011;6792;57.698;11.946;2023-12-14T19:20:57;4.00;;;2.37;;
13439;SDS011;6792;57.698;11.946;2023-12-14T19:23:32;2.73;;;2.20;;
13439;SDS011;6792;57.698;11.946;2023-12-14T19:26:01;4.70;;;2.70;;
13439;SDS011;6792;57.698;11.946;2023-12-14T19:28:32;2.47;;;1.90;;
13439;SDS011;6792;57.698;11.946;2023-12-14T19:31:33;3.30;;;2.27;;
13439;SDS011;6792;57.698;11.946;2023-12-14T19:34:02;5.83;;;2.20;;
13439;SDS011;6792;57.698;11.946;2023-12-14T19:36:31;3.83;;;2.60;;
13439;SDS011;6792;57.698;11.946;2023-12-14T19:39:05;3.77;;;2.60;;
13439;SDS011;6792;57.698;11.946;2023-12-14T19:41:34;5.33;;;3.07;;
13439;SDS011;6792;57.698;11.946;2023-12-14T19:44:08;3.70;;;2.30;;
13439;SDS011;6792;57.698;11.946;2023-12-14T19:46:49;3.07;;;2.43;;
13439;SDS011;6792;57.698;11.946;2023-12-14T19:49:21;5.37;;;3.07;;
13439;SDS011;6792;57.698;11.946;2023-12-14T19:51:54;3.03;;;2.63;;
13439;SDS011;6792;57.698;11.946;2023-12-14T19:54:45;4.67;;;2.60;;
13439;SDS011;6792;57.698;11.946;2023-12-14T19:57:20;3.83;;;2.83;;
13439;SDS011;6792;57.698;11.946;2023-12-14T19:59:50;4.17;;;2.30;;
13439;SDS011;6792;57.698;11.946;2023-12-14T20:02:25;3.93;;;2.70;;
13439;SDS011;6792;57.698;11.946;2023-12-14T20:04:59;5.37;;;2.40;;
13439;SDS011;6792;57.698;11.946;2023-12-14T20:07:32;7.07;;;2.83;;
13439;SDS011;6792;57.698;11.946;2023-12-14T20:10:17;2.97;;;2.40;;
13439;SDS011;6792;57.698;11.946;2023-12-14T20:15:43;3.43;;;2.30;;
13439;SDS011;6792;57.698;11.946;2023-12-14T20:18:16;3.47;;;2.00;;
13439;SDS011;6792;57.698;11.946;2023-12-14T20:20:46;3.00;;;2.33;;
13439;SDS011;6792;57.698;11.946;2023-12-14T20:23:29;2.93;;;2.13;;
13439;SDS011;6792;57.698;11.946;2023-12-14T20:26:04;3.17;;;2.30;;
13439;SDS011;6792;57.698;11.946;2023-12-14T20:28:43;3.03;;;2.27;;
13439;SDS011;6792;57.698;11.946;2023-12-14T20:31:14;4.63;;;2.60;;
13439;SDS011;6792;57.698;11.946;2023-12-14T20:33:47;4.97;;;2.47;;
13439;SDS011;6792;57.698;11.946;2023-12-14T20:36:21;2.93;;;2.13;;
13439;SDS011;6792;57.698;11.946;2023-12-14T20:38:54;6.63;;;2.13;;
13439;SDS011;6792;57.698;11.946;2023-12-14T20:42:09;4.00;;;2.33;;
13439;SDS011;6792;57.698;11.946;2023-12-14T20:45:09;2.97;;;2.20;;
